sensor_id;sensor_type;location;lat;lon;timestamp;pressure;altitude;pressure_sealevel;temperature;humidity
54920;BME280;63804;53.120;8.764;2023-02-15T00:00:04;103084.53;;;4.36;48.80
54920;BME280;63804;53.120;8.764;2023-02-15T00:02:31;103075.69;;;4.12;49.12
54920;BME280;63804;53.120;8.764;2023-02-15T00:04:56;103076.16;;;4.08;49.07
54920;BME280;63804;53.120;8.764;2023-02-15T00:07:21;103076.22;;;3.97;49.24
54920;BME280;63804;53.120;8.764;2023-02-15T00:09:47;103080.91;;;4.01;49.33
54920;BME280;63804;53.120;8.764;2023-02-15T00:12:14;103080.41;;;4.04;48.95
54920;BME280;63804;53.120;8.764;2023-02-15T00:14:39;103078.00;;;4.20;48.79
54920;BME280;63804;53.120;8.764;2023-02-15T00:17:05;103074.59;;;4.41;47.98
54920;BME280;63804;53.120;8.764;2023-02-15T00:19:30;103076.09;;;4.32;48.62
54920;BME280;63804;53.120;8.764;2023-02-15T00:21:56;103076.75;;;4.56;48.03
54920;BME280;63804;53.120;8.764;2023-02-15T00:24:22;103073.50;;;4.54;47.83
54920;BME280;63804;53.120;8.764;2023-02-15T00:26:47;103079.03;;;4.31;48.34
54920;BME280;63804;53.120;8.764;2023-02-15T00:29:15;103072.25;;;4.16;48.95
54920;BME280;63804;53.120;8.764;2023-02-15T00:31:41;103080.19;;;4.06;49.03
54920;BME280;63804;53.120;8.764;2023-02-15T00:34:15;103069.13;;;4.07;48.87
54920;BME280;63804;53.120;8.764;2023-02-15T00:36:41;103068.94;;;3.97;48.83
54920;BME280;63804;53.120;8.764;2023-02-15T00:39:07;103060.59;;;3.87;49.05
54920;BME280;63804;53.120;8.764;2023-02-15T00:41:33;103055.09;;;3.82;49.34
54920;BME280;63804;53.120;8.764;2023-02-15T00:43:58;103053.59;;;4.15;48.60
54920;BME280;63804;53.120;8.764;2023-02-15T00:46:24;103050.03;;;4.43;47.64
54920;BME280;63804;53.120;8.764;2023-02-15T00:48:49;103050.75;;;4.55;46.99
54920;BME280;63804;53.120;8.764;2023-02-15T00:51:15;103045.94;;;4.12;47.96
54920;BME280;63804;53.120;8.764;2023-02-15T00:53:40;103045.28;;;4.04;48.06
54920;BME280;63804;53.120;8.764;2023-02-15T00:56:06;103045.75;;;3.73;48.78
54920;BME280;63804;53.120;8.764;2023-02-15T00:58:31;103040.41;;;3.89;48.36
54920;BME280;63804;53.120;8.764;2023-02-15T01:01:05;103039.13;;;3.80;48.68
54920;BME280;63804;53.120;8.764;2023-02-15T01:03:31;103041.41;;;4.00;48.22
54920;BME280;63804;53.120;8.764;2023-02-15T01:05:57;103037.94;;;3.88;48.48
54920;BME280;63804;53.120;8.764;2023-02-15T01:08:22;103039.41;;;3.79;48.69
54920;BME280;63804;53.120;8.764;2023-02-15T01:10:48;103036.56;;;3.74;48.88
54920;BME280;63804;53.120;8.764;2023-02-15T01:13:15;103035.09;;;3.66;48.94
54920;BME280;63804;53.120;8.764;2023-02-15T01:15:41;103028.88;;;3.65;48.52
54920;BME280;63804;53.120;8.764;2023-02-15T01:18:06;103040.25;;;3.67;48.70
54920;BME280;63804;53.120;8.764;2023-02-15T01:20:35;103028.50;;;3.62;48.95
54920;BME280;63804;53.120;8.764;2023-02-15T01:23:01;103025.84;;;3.50;49.07
54920;BME280;63804;53.120;8.764;2023-02-15T01:25:27;103025.00;;;3.61;48.66
54920;BME280;63804;53.120;8.764;2023-02-15T01:27:52;103020.97;;;4.04;48.16
54920;BME280;63804;53.120;8.764;2023-02-15T01:30:18;103021.72;;;4.34;47.01
54920;BME280;63804;53.120;8.764;2023-02-15T01:32:43;103017.31;;;4.11;47.22
54920;BME280;63804;53.120;8.764;2023-02-15T01:35:09;103017.00;;;3.66;48.13
54920;BME280;63804;53.120;8.764;2023-02-15T01:37:35;103006.38;;;3.48;48.58
54920;BME280;63804;53.120;8.764;2023-02-15T01:40:03;103006.59;;;3.34;48.87
54920;BME280;63804;53.120;8.764;2023-02-15T01:42:35;103002.63;;;3.78;47.96
54920;BME280;63804;53.120;8.764;2023-02-15T01:45:16;103010.63;;;4.01;47.29
54920;BME280;63804;53.120;8.764;2023-02-15T01:47:47;103008.97;;;4.00;46.94
54920;BME280;63804;53.120;8.764;2023-02-15T01:50:36;103005.22;;;4.01;47.05
54920;BME280;63804;53.120;8.764;2023-02-15T01:55:55;103005.59;;;4.22;46.58
54920;BME280;63804;53.120;8.764;2023-02-15T01:58:25;103002.88;;;4.22;46.90
54920;BME280;63804;53.120;8.764;2023-02-15T02:00:51;102993.97;;;4.21;47.02
54920;BME280;63804;53.120;8.764;2023-02-15T02:03:27;102993.81;;;4.28;47.00
54920;BME280;63804;53.120;8.764;2023-02-15T02:05:55;102998.88;;;4.24;47.19
54920;BME280;63804;53.120;8.764;2023-02-15T02:08:20;103003.59;;;3.71;48.31
54920;BME280;63804;53.120;8.764;2023-02-15T02:10:45;102989.22;;;3.83;48.42
54920;BME280;63804;53.120;8.764;2023-02-15T02:13:11;102989.88;;;4.19;47.89
54920;BME280;63804;53.120;8.764;2023-02-15T02:15:57;103002.47;;;4.30;47.85
54920;BME280;63804;53.120;8.764;2023-02-15T02:19:19;102993.31;;;4.31;47.97
54920;BME280;63804;53.120;8.764;2023-02-15T02:24:01;102986.22;;;3.96;48.16
54920;BME280;63804;53.120;8.764;2023-02-15T02:32:13;102974.94;;;3.70;49.57
54920;BME280;63804;53.120;8.764;2023-02-15T02:39:47;102976.66;;;3.48;50.15
54920;BME280;63804;53.120;8.764;2023-02-15T02:44:50;102975.97;;;3.98;49.32
54920;BME280;63804;53.120;8.764;2023-02-15T02:48:30;102965.78;;;4.17;48.85
54920;BME280;63804;53.120;8.764;2023-02-15T02:50:27;102965.78;;;3.71;49.96
54920;BME280;63804;53.120;8.764;2023-02-15T02:52:54;102968.28;;;3.90;49.47
54920;BME280;63804;53.120;8.764;2023-02-15T02:55:32;102972.19;;;3.82;50.04
54920;BME280;63804;53.120;8.764;2023-02-15T02:58:17;102973.22;;;4.10;49.60
54920;BME280;63804;53.120;8.764;2023-02-15T03:03:53;102966.94;;;4.38;48.99
54920;BME280;63804;53.120;8.764;2023-02-15T03:06:36;102967.41;;;4.35;49.23
54920;BME280;63804;53.120;8.764;2023-02-15T03:09:23;102952.75;;;4.31;49.12
54920;BME280;63804;53.120;8.764;2023-02-15T03:11:50;102944.66;;;4.31;49.49
54920;BME280;63804;53.120;8.764;2023-02-15T03:14:18;102941.28;;;4.41;49.26
54920;BME280;63804;53.120;8.764;2023-02-15T03:16:46;102939.25;;;4.14;49.86
54920;BME280;63804;53.120;8.764;2023-02-15T03:19:16;102937.09;;;4.33;49.46
54920;BME280;63804;53.120;8.764;2023-02-15T03:21:49;102935.31;;;4.39;49.28
54920;BME280;63804;53.120;8.764;2023-02-15T03:24:26;102937.44;;;4.37;49.30
54920;BME280;63804;53.120;8.764;2023-02-15T03:26:54;102935.31;;;4.39;49.33
54920;BME280;63804;53.120;8.764;2023-02-15T03:29:24;102937.50;;;4.42;49.54
54920;BME280;63804;53.120;8.764;2023-02-15T03:31:55;102933.66;;;4.55;49.25
54920;BME280;63804;53.120;8.764;2023-02-15T03:34:23;102934.97;;;4.52;48.97
54920;BME280;63804;53.120;8.764;2023-02-15T03:36:52;102937.91;;;4.34;49.55
54920;BME280;63804;53.120;8.764;2023-02-15T03:39:33;102943.44;;;4.39;49.72
54920;BME280;63804;53.120;8.764;2023-02-15T03:44:41;102946.53;;;4.48;49.19
54920;BME280;63804;53.120;8.764;2023-02-15T03:47:15;102942.31;;;4.57;48.94
54920;BME280;63804;53.120;8.764;2023-02-15T03:49:52;102950.22;;;4.41;49.29
54920;BME280;63804;53.120;8.764;2023-02-15T03:52:20;102943.16;;;4.40;49.35
54920;BME280;63804;53.120;8.764;2023-02-15T03:54:47;102939.63;;;4.57;48.84
54920;BME280;63804;53.120;8.764;2023-02-15T03:57:20;102941.19;;;4.53;49.03
54920;BME280;63804;53.120;8.764;2023-02-15T04:00:12;102939.44;;;4.63;48.82
54920;BME280;63804;53.120;8.764;2023-02-15T04:05:40;102942.50;;;4.50;49.39
54920;BME280;63804;53.120;8.764;2023-02-15T04:08:06;102936.22;;;4.44;49.40
54920;BME280;63804;53.120;8.764;2023-02-15T04:10:32;102926.44;;;4.43;49.58
54920;BME280;63804;53.120;8.764;2023-02-15T04:13:15;102922.44;;;4.46;49.60
54920;BME280;63804;53.120;8.764;2023-02-15T04:15:41;102912.22;;;4.31;50.16
54920;BME280;63804;53.120;8.764;2023-02-15T04:18:25;102908.91;;;4.46;49.39
54920;BME280;63804;53.120;8.764;2023-02-15T04:21:09;102908.25;;;4.56;48.95
54920;BME280;63804;53.120;8.764;2023-02-15T04:23:52;102907.28;;;4.45;48.70
54920;BME280;63804;53.120;8.764;2023-02-15T04:26:36;102912.34;;;4.41;49.32
54920;BME280;63804;53.120;8.764;2023-02-15T04:29:01;102913.66;;;4.56;48.98
54920;BME280;63804;53.120;8.764;2023-02-15T04:31:27;102909.09;;;4.22;49.38
54920;BME280;63804;53.120;8.764;2023-02-15T04:33:52;102910.25;;;4.09;50.02
54920;BME280;63804;53.120;8.764;2023-02-15T04:36:17;102901.56;;;4.24;49.62
54920;BME280;63804;53.120;8.764;2023-02-15T04:38:43;102905.75;;;4.32;49.69
54920;BME280;63804;53.120;8.764;2023-02-15T04:41:08;102904.03;;;4.26;49.84
54920;BME280;63804;53.120;8.764;2023-02-15T04:43:35;102905.31;;;4.40;49.80
54920;BME280;63804;53.120;8.764;2023-02-15T04:46:01;102900.38;;;4.54;49.14
54920;BME280;63804;53.120;8.764;2023-02-15T04:48:26;102895.78;;;4.55;48.79
54920;BME280;63804;53.120;8.764;2023-02-15T04:50:51;102902.28;;;4.20;49.51
54920;BME280;63804;53.120;8.764;2023-02-15T04:53:17;102900.00;;;3.95;50.07
54920;BME280;63804;53.120;8.764;2023-02-15T04:55:43;102891.47;;;3.86;50.54
54920;BME280;63804;53.120;8.764;2023-02-15T04:58:08;102884.78;;;4.05;49.89
54920;BME280;63804;53.120;8.764;2023-02-15T05:00:34;102891.63;;;4.30;49.54
54920;BME280;63804;53.120;8.764;2023-02-15T05:02:59;102899.66;;;4.25;49.48
54920;BME280;63804;53.120;8.764;2023-02-15T05:05:25;102893.53;;;3.96;50.04
54920;BME280;63804;53.120;8.764;2023-02-15T05:07:50;102887.91;;;3.68;50.50
54920;BME280;63804;53.120;8.764;2023-02-15T05:10:23;102886.00;;;3.81;50.63
54920;BME280;63804;53.120;8.764;2023-02-15T05:12:48;102887.22;;;4.24;49.47
54920;BME280;63804;53.120;8.764;2023-02-15T05:15:13;102883.38;;;4.20;49.13
54920;BME280;63804;53.120;8.764;2023-02-15T05:17:39;102886.25;;;3.96;50.11
54920;BME280;63804;53.120;8.764;2023-02-15T05:20:06;102887.56;;;4.27;49.05
54920;BME280;63804;53.120;8.764;2023-02-15T05:22:31;102891.13;;;4.33;48.80
54920;BME280;63804;53.120;8.764;2023-02-15T05:24:57;102889.88;;;4.19;49.26
54920;BME280;63804;53.120;8.764;2023-02-15T05:27:41;102887.31;;;4.29;48.88
54920;BME280;63804;53.120;8.764;2023-02-15T05:30:25;102871.84;;;4.07;49.36
54920;BME280;63804;53.120;8.764;2023-02-15T05:32:50;102869.53;;;3.99;49.61
54920;BME280;63804;53.120;8.764;2023-02-15T05:35:17;102875.00;;;4.21;49.12
54920;BME280;63804;53.120;8.764;2023-02-15T05:37:43;102867.31;;;4.13;49.19
54920;BME280;63804;53.120;8.764;2023-02-15T05:40:08;102876.19;;;4.25;48.97
54920;BME280;63804;53.120;8.764;2023-02-15T05:42:34;102877.00;;;4.09;48.96
54920;BME280;63804;53.120;8.764;2023-02-15T05:44:59;102872.88;;;3.73;49.63
54920;BME280;63804;53.120;8.764;2023-02-15T05:47:25;102870.50;;;3.93;49.69
54920;BME280;63804;53.120;8.764;2023-02-15T05:49:50;102862.25;;;4.17;48.79
54920;BME280;63804;53.120;8.764;2023-02-15T05:52:16;102863.56;;;3.97;49.37
54920;BME280;63804;53.120;8.764;2023-02-15T05:54:41;102849.31;;;4.19;48.64
54920;BME280;63804;53.120;8.764;2023-02-15T05:57:06;102847.75;;;4.23;48.36
54920;BME280;63804;53.120;8.764;2023-02-15T05:59:32;102850.50;;;4.28;48.21
54920;BME280;63804;53.120;8.764;2023-02-15T06:01:57;102848.50;;;3.84;49.03
54920;BME280;63804;53.120;8.764;2023-02-15T06:04:23;102853.25;;;3.94;48.92
54920;BME280;63804;53.120;8.764;2023-02-15T06:06:48;102848.50;;;3.67;49.38
54920;BME280;63804;53.120;8.764;2023-02-15T06:09:13;102857.31;;;3.80;48.91
54920;BME280;63804;53.120;8.764;2023-02-15T06:11:39;102855.19;;;3.65;49.42
54920;BME280;63804;53.120;8.764;2023-02-15T06:14:05;102851.03;;;3.74;48.63
54920;BME280;63804;53.120;8.764;2023-02-15T06:16:30;102848.38;;;3.33;49.72
54920;BME280;63804;53.120;8.764;2023-02-15T06:18:55;102847.09;;;3.36;49.60
54920;BME280;63804;53.120;8.764;2023-02-15T06:21:21;102849.03;;;3.52;49.41
54920;BME280;63804;53.120;8.764;2023-02-15T06:23:47;102856.34;;;3.69;48.88
54920;BME280;63804;53.120;8.764;2023-02-15T06:26:12;102845.81;;;3.39;49.24
54920;BME280;63804;53.120;8.764;2023-02-15T06:28:37;102849.22;;;3.34;49.60
54920;BME280;63804;53.120;8.764;2023-02-15T06:31:03;102851.75;;;3.52;48.84
54920;BME280;63804;53.120;8.764;2023-02-15T06:33:29;102851.97;;;3.22;49.38
54920;BME280;63804;53.120;8.764;2023-02-15T06:35:55;102848.44;;;3.22;49.85
54920;BME280;63804;53.120;8.764;2023-02-15T06:38:21;102848.66;;;3.20;49.65
54920;BME280;63804;53.120;8.764;2023-02-15T06:40:47;102853.28;;;3.48;49.07
54920;BME280;63804;53.120;8.764;2023-02-15T06:43:12;102846.34;;;3.52;49.15
54920;BME280;63804;53.120;8.764;2023-02-15T06:45:38;102850.22;;;3.16;49.75
54920;BME280;63804;53.120;8.764;2023-02-15T06:48:04;102850.13;;;3.11;49.80
54920;BME280;63804;53.120;8.764;2023-02-15T06:50:32;102856.88;;;3.25;49.72
54920;BME280;63804;53.120;8.764;2023-02-15T06:52:58;102853.72;;;3.16;49.61
54920;BME280;63804;53.120;8.764;2023-02-15T06:55:23;102846.59;;;3.39;49.20
54920;BME280;63804;53.120;8.764;2023-02-15T06:57:49;102846.97;;;3.43;48.98
54920;BME280;63804;53.120;8.764;2023-02-15T07:00:14;102847.09;;;3.07;49.53
54920;BME280;63804;53.120;8.764;2023-02-15T07:02:40;102850.50;;;3.31;49.06
54920;BME280;63804;53.120;8.764;2023-02-15T07:05:05;102840.88;;;3.35;48.96
54920;BME280;63804;53.120;8.764;2023-02-15T07:07:30;102843.66;;;3.41;48.85
54920;BME280;63804;53.120;8.764;2023-02-15T07:09:56;102846.56;;;3.51;48.58
54920;BME280;63804;53.120;8.764;2023-02-15T07:12:21;102837.16;;;3.53;48.35
54920;BME280;63804;53.120;8.764;2023-02-15T07:15:05;102842.06;;;3.57;48.17
54920;BME280;63804;53.120;8.764;2023-02-15T07:17:38;102841.59;;;3.60;47.93
54920;BME280;63804;53.120;8.764;2023-02-15T07:20:09;102838.44;;;2.93;49.29
54920;BME280;63804;53.120;8.764;2023-02-15T07:22:35;102842.00;;;2.82;49.90
54920;BME280;63804;53.120;8.764;2023-02-15T07:25:03;102843.03;;;2.93;49.55
54920;BME280;63804;53.120;8.764;2023-02-15T07:27:29;102840.47;;;3.15;48.91
54920;BME280;63804;53.120;8.764;2023-02-15T07:29:55;102839.28;;;3.23;48.91
54920;BME280;63804;53.120;8.764;2023-02-15T07:32:20;102826.31;;;3.37;48.30
54920;BME280;63804;53.120;8.764;2023-02-15T07:34:46;102824.09;;;3.33;48.30
54920;BME280;63804;53.120;8.764;2023-02-15T07:37:11;102820.16;;;3.24;48.45
54920;BME280;63804;53.120;8.764;2023-02-15T07:39:36;102816.28;;;2.91;49.32
54920;BME280;63804;53.120;8.764;2023-02-15T07:42:02;102818.69;;;2.76;49.97
54920;BME280;63804;53.120;8.764;2023-02-15T07:44:27;102816.28;;;2.91;49.66
54920;BME280;63804;53.120;8.764;2023-02-15T07:46:53;102808.81;;;2.82;49.98
54920;BME280;63804;53.120;8.764;2023-02-15T07:49:18;102815.09;;;2.99;50.05
54920;BME280;63804;53.120;8.764;2023-02-15T07:51:43;102810.50;;;3.57;48.61
54920;BME280;63804;53.120;8.764;2023-02-15T07:54:09;102803.22;;;3.75;47.95
54920;BME280;63804;53.120;8.764;2023-02-15T07:56:34;102807.16;;;3.84;47.60
54920;BME280;63804;53.120;8.764;2023-02-15T07:58:59;102803.31;;;3.80;48.17
54920;BME280;63804;53.120;8.764;2023-02-15T08:01:33;102798.88;;;3.74;48.38
54920;BME280;63804;53.120;8.764;2023-02-15T08:04:00;102799.31;;;3.65;48.87
54920;BME280;63804;53.120;8.764;2023-02-15T08:06:29;102803.19;;;4.08;47.79
54920;BME280;63804;53.120;8.764;2023-02-15T08:08:55;102806.31;;;4.00;48.13
54920;BME280;63804;53.120;8.764;2023-02-15T08:11:26;102801.41;;;4.14;48.02
54920;BME280;63804;53.120;8.764;2023-02-15T08:18:58;102805.91;;;4.08;48.29
54920;BME280;63804;53.120;8.764;2023-02-15T08:21:26;102800.34;;;3.98;48.81
54920;BME280;63804;53.120;8.764;2023-02-15T08:23:52;102804.13;;;3.97;48.85
54920;BME280;63804;53.120;8.764;2023-02-15T08:26:17;102800.91;;;4.00;49.25
54920;BME280;63804;53.120;8.764;2023-02-15T08:28:43;102801.13;;;4.33;48.61
54920;BME280;63804;53.120;8.764;2023-02-15T08:31:10;102795.53;;;4.39;48.38
54920;BME280;63804;53.120;8.764;2023-02-15T08:33:37;102791.47;;;4.59;48.15
54920;BME280;63804;53.120;8.764;2023-02-15T08:36:08;102797.00;;;4.69;47.99
54920;BME280;63804;53.120;8.764;2023-02-15T08:38:34;102796.41;;;4.67;48.10
54920;BME280;63804;53.120;8.764;2023-02-15T08:41:11;102797.91;;;4.58;48.61
54920;BME280;63804;53.120;8.764;2023-02-15T08:43:37;102795.78;;;4.60;48.65
54920;BME280;63804;53.120;8.764;2023-02-15T08:46:03;102792.94;;;4.50;49.02
54920;BME280;63804;53.120;8.764;2023-02-15T08:48:28;102791.69;;;4.79;48.69
54920;BME280;63804;53.120;8.764;2023-02-15T08:50:54;102786.78;;;4.76;48.89
54920;BME280;63804;53.120;8.764;2023-02-15T08:53:19;102788.84;;;4.91;48.98
54920;BME280;63804;53.120;8.764;2023-02-15T08:55:47;102778.69;;;5.04;48.46
54920;BME280;63804;53.120;8.764;2023-02-15T08:58:12;102784.34;;;5.02;48.59
54920;BME280;63804;53.120;8.764;2023-02-15T09:00:38;102773.56;;;5.07;48.97
54920;BME280;63804;53.120;8.764;2023-02-15T09:03:03;102769.94;;;5.24;48.53
54920;BME280;63804;53.120;8.764;2023-02-15T09:05:28;102767.59;;;5.05;49.07
54920;BME280;63804;53.120;8.764;2023-02-15T09:07:54;102771.53;;;5.19;49.23
54920;BME280;63804;53.120;8.764;2023-02-15T09:10:19;102774.34;;;5.30;48.85
54920;BME280;63804;53.120;8.764;2023-02-15T09:12:45;102771.75;;;5.40;48.82
54920;BME280;63804;53.120;8.764;2023-02-15T09:15:10;102766.44;;;5.55;48.47
54920;BME280;63804;53.120;8.764;2023-02-15T09:17:36;102766.81;;;5.64;48.17
54920;BME280;63804;53.120;8.764;2023-02-15T09:20:01;102765.78;;;5.75;47.82
54920;BME280;63804;53.120;8.764;2023-02-15T09:22:27;102757.25;;;5.94;47.58
54920;BME280;63804;53.120;8.764;2023-02-15T09:24:53;102758.63;;;5.97;47.56
54920;BME280;63804;53.120;8.764;2023-02-15T09:27:18;102755.38;;;5.94;47.60
54920;BME280;63804;53.120;8.764;2023-02-15T09:29:44;102757.56;;;5.98;47.82
54920;BME280;63804;53.120;8.764;2023-02-15T09:32:13;102755.97;;;6.07;47.52
54920;BME280;63804;53.120;8.764;2023-02-15T09:34:39;102758.72;;;6.17;47.56
54920;BME280;63804;53.120;8.764;2023-02-15T09:37:05;102762.31;;;6.23;47.53
54920;BME280;63804;53.120;8.764;2023-02-15T09:39:31;102767.50;;;6.29;47.19
54920;BME280;63804;53.120;8.764;2023-02-15T09:47:41;102764.56;;;6.41;47.34
54920;BME280;63804;53.120;8.764;2023-02-15T09:55:34;102767.09;;;6.74;46.99
54920;BME280;63804;53.120;8.764;2023-02-15T09:58:42;102753.28;;;6.75;47.07
54920;BME280;63804;53.120;8.764;2023-02-15T10:03:46;102760.06;;;6.78;47.05
54920;BME280;63804;53.120;8.764;2023-02-15T10:14:15;102762.59;;;7.00;46.79
54920;BME280;63804;53.120;8.764;2023-02-15T10:22:14;102754.19;;;7.22;46.50
54920;BME280;63804;53.120;8.764;2023-02-15T10:24:57;102763.41;;;7.21;46.84
54920;BME280;63804;53.120;8.764;2023-02-15T10:27:31;102750.94;;;7.30;46.73
54920;BME280;63804;53.120;8.764;2023-02-15T10:30:10;102752.31;;;7.43;46.32
54920;BME280;63804;53.120;8.764;2023-02-15T10:32:53;102747.16;;;7.47;46.25
54920;BME280;63804;53.120;8.764;2023-02-15T10:36:16;102746.59;;;7.50;46.23
54920;BME280;63804;53.120;8.764;2023-02-15T10:46:55;102740.63;;;7.63;46.66
54920;BME280;63804;53.120;8.764;2023-02-15T10:52:21;102744.91;;;7.79;46.28
54920;BME280;63804;53.120;8.764;2023-02-15T11:03:51;102732.69;;;7.87;46.27
54920;BME280;63804;53.120;8.764;2023-02-15T11:06:22;102728.06;;;7.83;46.42
54920;BME280;63804;53.120;8.764;2023-02-15T11:08:51;102728.06;;;7.88;46.71
54920;BME280;63804;53.120;8.764;2023-02-15T11:11:32;102728.63;;;7.90;46.88
54920;BME280;63804;53.120;8.764;2023-02-15T11:14:03;102729.63;;;8.04;46.55
54920;BME280;63804;53.120;8.764;2023-02-15T11:16:34;102720.38;;;8.10;46.51
54920;BME280;63804;53.120;8.764;2023-02-15T11:19:21;102716.53;;;8.22;46.40
54920;BME280;63804;53.120;8.764;2023-02-15T11:21:58;102714.34;;;8.24;46.51
54920;BME280;63804;53.120;8.764;2023-02-15T11:24:28;102712.25;;;8.05;46.73
54920;BME280;63804;53.120;8.764;2023-02-15T11:26:57;102710.28;;;8.16;46.80
54920;BME280;63804;53.120;8.764;2023-02-15T11:29:38;102698.81;;;8.34;46.40
54920;BME280;63804;53.120;8.764;2023-02-15T11:32:21;102698.47;;;8.46;46.14
54920;BME280;63804;53.120;8.764;2023-02-15T11:37:18;102684.81;;;8.62;46.02
54920;BME280;63804;53.120;8.764;2023-02-15T11:39:44;102683.66;;;8.68;45.90
54920;BME280;63804;53.120;8.764;2023-02-15T11:42:20;102684.22;;;8.70;45.93
54920;BME280;63804;53.120;8.764;2023-02-15T11:45:04;102681.53;;;8.65;46.25
54920;BME280;63804;53.120;8.764;2023-02-15T11:47:32;102673.03;;;8.71;46.10
54920;BME280;63804;53.120;8.764;2023-02-15T11:49:59;102677.56;;;8.81;46.18
54920;BME280;63804;53.120;8.764;2023-02-15T11:52:25;102678.09;;;8.88;46.03
54920;BME280;63804;53.120;8.764;2023-02-15T11:54:52;102665.78;;;8.91;46.19
54920;BME280;63804;53.120;8.764;2023-02-15T11:57:31;102666.03;;;8.95;46.16
54920;BME280;63804;53.120;8.764;2023-02-15T12:00:04;102659.22;;;8.97;46.11
54920;BME280;63804;53.120;8.764;2023-02-15T12:02:33;102659.22;;;8.97;46.23
54920;BME280;63804;53.120;8.764;2023-02-15T12:05:03;102657.09;;;8.89;46.37
54920;BME280;63804;53.120;8.764;2023-02-15T12:07:35;102653.44;;;9.04;46.10
54920;BME280;63804;53.120;8.764;2023-02-15T12:10:10;102646.88;;;9.10;46.05
54920;BME280;63804;53.120;8.764;2023-02-15T12:12:39;102638.97;;;9.08;46.30
54920;BME280;63804;53.120;8.764;2023-02-15T12:15:07;102635.88;;;9.20;46.14
54920;BME280;63804;53.120;8.764;2023-02-15T12:17:41;102641.09;;;9.17;46.26
54920;BME280;63804;53.120;8.764;2023-02-15T12:22:39;102628.72;;;9.24;46.21
54920;BME280;63804;53.120;8.764;2023-02-15T12:25:22;102625.91;;;9.35;46.35
54920;BME280;63804;53.120;8.764;2023-02-15T12:27:48;102630.53;;;9.34;46.25
54920;BME280;63804;53.120;8.764;2023-02-15T12:30:30;102621.84;;;9.32;46.32
54920;BME280;63804;53.120;8.764;2023-02-15T12:33:18;102626.44;;;9.37;46.72
54920;BME280;63804;53.120;8.764;2023-02-15T12:35:47;102624.53;;;9.37;46.35
54920;BME280;63804;53.120;8.764;2023-02-15T12:40:40;102608.22;;;9.56;46.22
54920;BME280;63804;53.120;8.764;2023-02-15T12:43:24;102604.16;;;9.59;45.99
54920;BME280;63804;53.120;8.764;2023-02-15T12:45:50;102603.88;;;9.60;46.11
54920;BME280;63804;53.120;8.764;2023-02-15T12:48:17;102594.84;;;9.60;46.22
54920;BME280;63804;53.120;8.764;2023-02-15T12:50:50;102603.50;;;9.67;46.28
54920;BME280;63804;53.120;8.764;2023-02-15T12:53:22;102597.78;;;9.69;46.14
54920;BME280;63804;53.120;8.764;2023-02-15T12:55:57;102599.25;;;9.80;45.85
54920;BME280;63804;53.120;8.764;2023-02-15T13:03:34;102594.34;;;10.01;45.84
54920;BME280;63804;53.120;8.764;2023-02-15T13:06:01;102592.72;;;10.00;45.79
54920;BME280;63804;53.120;8.764;2023-02-15T13:08:37;102588.66;;;9.97;46.03
54920;BME280;63804;53.120;8.764;2023-02-15T13:11:11;102586.09;;;10.06;45.63
54920;BME280;63804;53.120;8.764;2023-02-15T13:13:57;102583.88;;;10.08;45.80
54920;BME280;63804;53.120;8.764;2023-02-15T13:16:30;102579.91;;;10.00;45.92
54920;BME280;63804;53.120;8.764;2023-02-15T13:18:56;102581.06;;;10.13;45.68
54920;BME280;63804;53.120;8.764;2023-02-15T13:21:26;102587.00;;;10.21;45.41
54920;BME280;63804;53.120;8.764;2023-02-15T13:27:19;102579.09;;;10.19;45.69
54920;BME280;63804;53.120;8.764;2023-02-15T13:29:51;102579.91;;;10.19;45.26
54920;BME280;63804;53.120;8.764;2023-02-15T13:32:30;102575.19;;;10.25;45.35
54920;BME280;63804;53.120;8.764;2023-02-15T13:34:59;102572.22;;;10.22;45.25
54920;BME280;63804;53.120;8.764;2023-02-15T13:38:05;102561.09;;;10.18;45.33
54920;BME280;63804;53.120;8.764;2023-02-15T13:40:46;102557.69;;;10.26;45.44
54920;BME280;63804;53.120;8.764;2023-02-15T13:49:00;102549.25;;;10.42;44.79
54920;BME280;63804;53.120;8.764;2023-02-15T13:54:41;102540.19;;;10.46;44.86
54920;BME280;63804;53.120;8.764;2023-02-15T14:03:42;102545.94;;;10.64;44.77
54920;BME280;63804;53.120;8.764;2023-02-15T14:09:24;102539.03;;;10.66;44.57
54920;BME280;63804;53.120;8.764;2023-02-15T14:12:04;102538.53;;;10.64;44.49
54920;BME280;63804;53.120;8.764;2023-02-15T14:17:20;102523.53;;;10.62;44.86
54920;BME280;63804;53.120;8.764;2023-02-15T14:19:54;102523.25;;;10.63;44.75
54920;BME280;63804;53.120;8.764;2023-02-15T14:22:36;102525.97;;;10.63;44.84
54920;BME280;63804;53.120;8.764;2023-02-15T14:28:33;102523.53;;;10.62;44.59
54920;BME280;63804;53.120;8.764;2023-02-15T14:31:02;102520.59;;;10.58;44.79
54920;BME280;63804;53.120;8.764;2023-02-15T14:33:37;102523.25;;;10.63;44.55
54920;BME280;63804;53.120;8.764;2023-02-15T14:36:07;102522.66;;;10.66;44.36
54920;BME280;63804;53.120;8.764;2023-02-15T14:39:03;102515.19;;;10.72;44.48
54920;BME280;63804;53.120;8.764;2023-02-15T14:41:59;102510.13;;;10.65;44.50
54920;BME280;63804;53.120;8.764;2023-02-15T14:47:17;102504.88;;;10.69;44.21
54920;BME280;63804;53.120;8.764;2023-02-15T14:49:44;102511.72;;;10.66;44.30
54920;BME280;63804;53.120;8.764;2023-02-15T14:52:11;102516.69;;;10.64;44.19
54920;BME280;63804;53.120;8.764;2023-02-15T14:59:52;102521.06;;;10.65;43.83
54920;BME280;63804;53.120;8.764;2023-02-15T15:02:43;102521.06;;;10.65;43.79
54920;BME280;63804;53.120;8.764;2023-02-15T15:05:31;102515.59;;;10.65;43.79
54920;BME280;63804;53.120;8.764;2023-02-15T15:08:00;102517.28;;;10.61;44.23
54920;BME280;63804;53.120;8.764;2023-02-15T15:10:51;102513.97;;;10.64;44.05
54920;BME280;63804;53.120;8.764;2023-02-15T15:18:51;102502.53;;;10.62;44.01
54920;BME280;63804;53.120;8.764;2023-02-15T15:32:57;102465.09;;;10.49;43.75
54920;BME280;63804;53.120;8.764;2023-02-15T15:41:19;102454.03;;;10.40;43.56
54920;BME280;63804;53.120;8.764;2023-02-15T15:46:47;102451.00;;;10.42;43.91
54920;BME280;63804;53.120;8.764;2023-02-15T15:49:20;102458.69;;;10.40;43.71